sensor_id;sensor_type;location;lat;lon;timestamp;temperature;humidity
42019;DHT22;27703;51.980;5.848;2023-04-19T00:00:43;11.90;99.90
42019;DHT22;27703;51.980;5.848;2023-04-19T00:03:09;11.80;99.90
42019;DHT22;27703;51.980;5.848;2023-04-19T00:05:35;11.80;99.90
42019;DHT22;27703;51.980;5.848;2023-04-19T00:08:03;11.80;99.90
42019;DHT22;27703;51.980;5.848;2023-04-19T00:10:28;11.80;99.90
42019;DHT22;27703;51.980;5.848;2023-04-19T00:12:54;11.80;99.90
42019;DHT22;27703;51.980;5.848;2023-04-19T00:15:19;11.70;99.90
42019;DHT22;27703;51.980;5.848;2023-04-19T00:17:45;11.80;99.90
42019;DHT22;27703;51.980;5.848;2023-04-19T00:20:10;11.80;99.90
42019;DHT22;27703;51.980;5.848;2023-04-19T00:22:37;11.80;99.90
42019;DHT22;27703;51.980;5.848;2023-04-19T00:25:03;11.70;99.90
42019;DHT22;27703;51.980;5.848;2023-04-19T00:27:29;11.80;99.90
42019;DHT22;27703;51.980;5.848;2023-04-19T00:29:55;11.70;99.90
42019;DHT22;27703;51.980;5.848;2023-04-19T00:32:22;11.70;99.90
42019;DHT22;27703;51.980;5.848;2023-04-19T00:34:47;11.70;99.90
42019;DHT22;27703;51.980;5.848;2023-04-19T00:37:13;11.70;99.90
42019;DHT22;27703;51.980;5.848;2023-04-19T00:39:39;11.60;99.90
42019;DHT22;27703;51.980;5.848;2023-04-19T00:42:04;11.60;99.90
42019;DHT22;27703;51.980;5.848;2023-04-19T00:44:30;11.60;99.90
42019;DHT22;27703;51.980;5.848;2023-04-19T00:46:56;11.50;99.90
42019;DHT22;27703;51.980;5.848;2023-04-19T00:49:22;11.40;99.90
42019;DHT22;27703;51.980;5.848;2023-04-19T00:51:49;11.50;99.90
42019;DHT22;27703;51.980;5.848;2023-04-19T00:54:15;11.40;99.90
42019;DHT22;27703;51.980;5.848;2023-04-19T00:56:42;11.40;99.90
42019;DHT22;27703;51.980;5.848;2023-04-19T00:59:08;11.30;99.90
42019;DHT22;27703;51.980;5.848;2023-04-19T01:01:34;11.40;99.90
42019;DHT22;27703;51.980;5.848;2023-04-19T01:04:00;11.30;99.90
42019;DHT22;27703;51.980;5.848;2023-04-19T01:06:27;11.30;99.90
42019;DHT22;27703;51.980;5.848;2023-04-19T01:08:54;11.30;99.90
42019;DHT22;27703;51.980;5.848;2023-04-19T01:11:19;11.30;99.90
42019;DHT22;27703;51.980;5.848;2023-04-19T01:13:45;11.30;99.90
42019;DHT22;27703;51.980;5.848;2023-04-19T01:16:11;11.30;99.90
42019;DHT22;27703;51.980;5.848;2023-04-19T01:18:36;11.30;99.90
42019;DHT22;27703;51.980;5.848;2023-04-19T01:21:04;11.20;99.90
42019;DHT22;27703;51.980;5.848;2023-04-19T01:23:29;11.20;99.90
42019;DHT22;27703;51.980;5.848;2023-04-19T01:25:55;11.20;99.90
42019;DHT22;27703;51.980;5.848;2023-04-19T01:28:21;11.20;99.90
42019;DHT22;27703;51.980;5.848;2023-04-19T01:30:46;11.10;99.90
42019;DHT22;27703;51.980;5.848;2023-04-19T01:33:15;11.10;99.90
42019;DHT22;27703;51.980;5.848;2023-04-19T01:35:41;11.10;99.90
42019;DHT22;27703;51.980;5.848;2023-04-19T01:38:06;11.10;99.90
42019;DHT22;27703;51.980;5.848;2023-04-19T01:40:32;11.10;99.90
42019;DHT22;27703;51.980;5.848;2023-04-19T01:42:57;11.10;99.90
42019;DHT22;27703;51.980;5.848;2023-04-19T01:45:23;11.00;99.90
42019;DHT22;27703;51.980;5.848;2023-04-19T01:47:49;11.00;99.90
42019;DHT22;27703;51.980;5.848;2023-04-19T01:50:14;11.00;99.90
42019;DHT22;27703;51.980;5.848;2023-04-19T01:52:40;10.90;99.90
42019;DHT22;27703;51.980;5.848;2023-04-19T01:55:06;10.90;99.90
42019;DHT22;27703;51.980;5.848;2023-04-19T01:57:31;10.90;99.90
42019;DHT22;27703;51.980;5.848;2023-04-19T01:59:57;10.90;99.90
42019;DHT22;27703;51.980;5.848;2023-04-19T02:02:22;10.90;99.90
42019;DHT22;27703;51.980;5.848;2023-04-19T02:04:48;10.90;99.90
42019;DHT22;27703;51.980;5.848;2023-04-19T02:07:13;10.80;99.90
42019;DHT22;27703;51.980;5.848;2023-04-19T02:09:39;10.80;99.90
42019;DHT22;27703;51.980;5.848;2023-04-19T02:12:05;10.80;99.90
42019;DHT22;27703;51.980;5.848;2023-04-19T02:14:30;10.80;99.90
42019;DHT22;27703;51.980;5.848;2023-04-19T02:16:56;10.80;99.90
42019;DHT22;27703;51.980;5.848;2023-04-19T02:19:22;10.70;99.90
42019;DHT22;27703;51.980;5.848;2023-04-19T02:21:48;10.70;99.90
42019;DHT22;27703;51.980;5.848;2023-04-19T02:24:13;10.70;99.90
42019;DHT22;27703;51.980;5.848;2023-04-19T02:26:39;10.70;99.90
42019;DHT22;27703;51.980;5.848;2023-04-19T02:29:05;10.70;99.90
42019;DHT22;27703;51.980;5.848;2023-04-19T02:31:31;10.70;99.90
42019;DHT22;27703;51.980;5.848;2023-04-19T02:33:57;10.70;99.90
42019;DHT22;27703;51.980;5.848;2023-04-19T02:36:22;10.70;99.90
42019;DHT22;27703;51.980;5.848;2023-04-19T02:38:48;10.70;99.90
42019;DHT22;27703;51.980;5.848;2023-04-19T02:41:13;10.70;99.90
42019;DHT22;27703;51.980;5.848;2023-04-19T02:43:39;10.70;99.90
42019;DHT22;27703;51.980;5.848;2023-04-19T02:46:04;10.70;99.90
42019;DHT22;27703;51.980;5.848;2023-04-19T02:48:31;10.80;99.90
42019;DHT22;27703;51.980;5.848;2023-04-19T02:50:56;10.80;99.90
42019;DHT22;27703;51.980;5.848;2023-04-19T02:53:22;10.80;99.90
42019;DHT22;27703;51.980;5.848;2023-04-19T02:55:47;10.80;99.90
42019;DHT22;27703;51.980;5.848;2023-04-19T02:58:13;10.80;99.90
42019;DHT22;27703;51.980;5.848;2023-04-19T03:00:39;10.80;99.90
42019;DHT22;27703;51.980;5.848;2023-04-19T03:03:05;10.80;99.90
42019;DHT22;27703;51.980;5.848;2023-04-19T03:05:31;10.90;99.90
42019;DHT22;27703;51.980;5.848;2023-04-19T03:07:57;10.90;99.90
42019;DHT22;27703;51.980;5.848;2023-04-19T03:10:23;10.90;99.90
42019;DHT22;27703;51.980;5.848;2023-04-19T03:12:48;11.00;99.90
42019;DHT22;27703;51.980;5.848;2023-04-19T03:15:14;10.90;99.90
42019;DHT22;27703;51.980;5.848;2023-04-19T03:17:40;10.90;99.90
42019;DHT22;27703;51.980;5.848;2023-04-19T03:20:06;10.90;99.90
42019;DHT22;27703;51.980;5.848;2023-04-19T03:22:35;10.90;99.90
42019;DHT22;27703;51.980;5.848;2023-04-19T03:25:01;10.90;99.90
42019;DHT22;27703;51.980;5.848;2023-04-19T03:27:26;10.90;99.90
42019;DHT22;27703;51.980;5.848;2023-04-19T03:29:52;10.90;99.90
42019;DHT22;27703;51.980;5.848;2023-04-19T03:32:17;10.90;99.90
42019;DHT22;27703;51.980;5.848;2023-04-19T03:34:43;10.90;99.90
42019;DHT22;27703;51.980;5.848;2023-04-19T03:37:08;10.90;99.90
42019;DHT22;27703;51.980;5.848;2023-04-19T03:39:34;10.90;99.90
42019;DHT22;27703;51.980;5.848;2023-04-19T03:42:00;10.90;99.90
42019;DHT22;27703;51.980;5.848;2023-04-19T03:44:26;10.90;99.90
42019;DHT22;27703;51.980;5.848;2023-04-19T03:46:51;10.90;99.90
42019;DHT22;27703;51.980;5.848;2023-04-19T03:49:17;10.90;99.90
42019;DHT22;27703;51.980;5.848;2023-04-19T03:51:42;10.90;99.90
42019;DHT22;27703;51.980;5.848;2023-04-19T03:54:08;10.90;99.90
42019;DHT22;27703;51.980;5.848;2023-04-19T03:56:34;10.90;99.90
42019;DHT22;27703;51.980;5.848;2023-04-19T03:58:59;10.90;99.90
42019;DHT22;27703;51.980;5.848;2023-04-19T04:01:25;10.90;99.90
42019;DHT22;27703;51.980;5.848;2023-04-19T04:03:51;10.80;99.90
42019;DHT22;27703;51.980;5.848;2023-04-19T04:06:16;10.80;99.90
42019;DHT22;27703;51.980;5.848;2023-04-19T04:08:42;10.80;99.90
42019;DHT22;27703;51.980;5.848;2023-04-19T04:11:08;10.70;99.90
42019;DHT22;27703;51.980;5.848;2023-04-19T04:13:33;10.60;99.90
42019;DHT22;27703;51.980;5.848;2023-04-19T04:15:59;10.60;99.90
42019;DHT22;27703;51.980;5.848;2023-04-19T04:18:24;10.60;99.90
42019;DHT22;27703;51.980;5.848;2023-04-19T04:20:51;10.50;99.90
42019;DHT22;27703;51.980;5.848;2023-04-19T04:23:17;10.50;99.90
42019;DHT22;27703;51.980;5.848;2023-04-19T04:25:42;10.50;99.90
42019;DHT22;27703;51.980;5.848;2023-04-19T04:28:08;10.40;99.90
42019;DHT22;27703;51.980;5.848;2023-04-19T04:30:33;10.40;99.90
42019;DHT22;27703;51.980;5.848;2023-04-19T04:33:00;10.40;99.90
42019;DHT22;27703;51.980;5.848;2023-04-19T04:35:26;10.30;99.90
42019;DHT22;27703;51.980;5.848;2023-04-19T04:37:53;10.30;99.90
42019;DHT22;27703;51.980;5.848;2023-04-19T04:40:18;10.30;99.90
42019;DHT22;27703;51.980;5.848;2023-04-19T04:42:44;10.30;99.90
42019;DHT22;27703;51.980;5.848;2023-04-19T04:45:10;10.20;99.90
42019;DHT22;27703;51.980;5.848;2023-04-19T04:47:36;10.20;99.90
42019;DHT22;27703;51.980;5.848;2023-04-19T04:50:07;10.20;99.90
42019;DHT22;27703;51.980;5.848;2023-04-19T04:52:33;10.20;99.90
42019;DHT22;27703;51.980;5.848;2023-04-19T04:54:59;10.20;99.90
42019;DHT22;27703;51.980;5.848;2023-04-19T04:57:24;10.10;99.90
42019;DHT22;27703;51.980;5.848;2023-04-19T04:59:50;10.10;99.90
42019;DHT22;27703;51.980;5.848;2023-04-19T05:02:15;10.00;99.90
42019;DHT22;27703;51.980;5.848;2023-04-19T05:04:41;10.00;99.90
42019;DHT22;27703;51.980;5.848;2023-04-19T05:07:07;10.00;99.90
42019;DHT22;27703;51.980;5.848;2023-04-19T05:09:32;9.90;99.90
42019;DHT22;27703;51.980;5.848;2023-04-19T05:11:58;10.00;99.90
42019;DHT22;27703;51.980;5.848;2023-04-19T05:14:23;9.90;99.90
42019;DHT22;27703;51.980;5.848;2023-04-19T05:16:49;9.90;99.90
42019;DHT22;27703;51.980;5.848;2023-04-19T05:19:14;9.90;99.90
42019;DHT22;27703;51.980;5.848;2023-04-19T05:21:40;9.90;99.90
42019;DHT22;27703;51.980;5.848;2023-04-19T05:24:06;9.90;99.90
42019;DHT22;27703;51.980;5.848;2023-04-19T05:26:34;9.90;99.90
42019;DHT22;27703;51.980;5.848;2023-04-19T05:28:59;9.90;99.90
42019;DHT22;27703;51.980;5.848;2023-04-19T05:31:25;9.90;99.90
42019;DHT22;27703;51.980;5.848;2023-04-19T05:33:51;9.90;99.90
42019;DHT22;27703;51.980;5.848;2023-04-19T05:36:16;9.90;99.90
42019;DHT22;27703;51.980;5.848;2023-04-19T05:38:42;9.90;99.90
42019;DHT22;27703;51.980;5.848;2023-04-19T05:41:07;9.90;99.90
42019;DHT22;27703;51.980;5.848;2023-04-19T05:43:33;9.90;99.90
42019;DHT22;27703;51.980;5.848;2023-04-19T05:45:58;9.90;99.90
42019;DHT22;27703;51.980;5.848;2023-04-19T05:48:24;9.90;99.90
42019;DHT22;27703;51.980;5.848;2023-04-19T05:50:50;9.90;99.90
42019;DHT22;27703;51.980;5.848;2023-04-19T05:53:18;9.90;99.90
42019;DHT22;27703;51.980;5.848;2023-04-19T05:55:44;9.90;99.90
42019;DHT22;27703;51.980;5.848;2023-04-19T05:58:10;9.90;99.90
42019;DHT22;27703;51.980;5.848;2023-04-19T06:00:35;9.90;99.90
42019;DHT22;27703;51.980;5.848;2023-04-19T06:03:02;9.90;99.90
42019;DHT22;27703;51.980;5.848;2023-04-19T06:05:27;9.80;99.90
42019;DHT22;27703;51.980;5.848;2023-04-19T06:07:53;9.80;99.90
42019;DHT22;27703;51.980;5.848;2023-04-19T06:10:21;9.80;99.90
42019;DHT22;27703;51.980;5.848;2023-04-19T06:12:47;9.80;99.90
42019;DHT22;27703;51.980;5.848;2023-04-19T06:15:13;9.80;99.90
42019;DHT22;27703;51.980;5.848;2023-04-19T06:17:38;9.80;99.90
42019;DHT22;27703;51.980;5.848;2023-04-19T06:20:04;9.90;99.90
42019;DHT22;27703;51.980;5.848;2023-04-19T06:22:32;9.90;99.90
42019;DHT22;27703;51.980;5.848;2023-04-19T06:24:57;9.90;99.90
42019;DHT22;27703;51.980;5.848;2023-04-19T06:27:23;9.90;99.90
42019;DHT22;27703;51.980;5.848;2023-04-19T06:29:48;9.90;99.90
42019;DHT22;27703;51.980;5.848;2023-04-19T06:32:14;10.00;99.90
42019;DHT22;27703;51.980;5.848;2023-04-19T06:34:40;10.10;99.90
42019;DHT22;27703;51.980;5.848;2023-04-19T06:37:05;10.10;99.90
42019;DHT22;27703;51.980;5.848;2023-04-19T06:39:31;10.20;99.90
42019;DHT22;27703;51.980;5.848;2023-04-19T06:41:57;10.30;99.90
42019;DHT22;27703;51.980;5.848;2023-04-19T06:44:22;10.40;99.90
42019;DHT22;27703;51.980;5.848;2023-04-19T06:46:48;10.50;99.90
42019;DHT22;27703;51.980;5.848;2023-04-19T06:49:14;10.60;99.90
42019;DHT22;27703;51.980;5.848;2023-04-19T06:51:39;10.70;99.90
42019;DHT22;27703;51.980;5.848;2023-04-19T06:54:05;10.80;99.90
42019;DHT22;27703;51.980;5.848;2023-04-19T06:56:44;10.80;99.90
42019;DHT22;27703;51.980;5.848;2023-04-19T06:59:16;11.00;99.90
42019;DHT22;27703;51.980;5.848;2023-04-19T07:01:43;11.00;99.90
42019;DHT22;27703;51.980;5.848;2023-04-19T07:04:10;11.10;99.90
42019;DHT22;27703;51.980;5.848;2023-04-19T07:06:36;11.10;99.90
42019;DHT22;27703;51.980;5.848;2023-04-19T07:09:03;11.20;99.90
42019;DHT22;27703;51.980;5.848;2023-04-19T07:11:29;11.20;99.70
42019;DHT22;27703;51.980;5.848;2023-04-19T07:13:55;11.30;99.40
42019;DHT22;27703;51.980;5.848;2023-04-19T07:16:21;11.30;98.80
42019;DHT22;27703;51.980;5.848;2023-04-19T07:18:47;11.30;97.90
42019;DHT22;27703;51.980;5.848;2023-04-19T07:21:12;11.30;97.60
42019;DHT22;27703;51.980;5.848;2023-04-19T07:23:38;11.30;97.50
42019;DHT22;27703;51.980;5.848;2023-04-19T07:26:03;11.40;97.10
42019;DHT22;27703;51.980;5.848;2023-04-19T07:28:29;11.50;97.30
42019;DHT22;27703;51.980;5.848;2023-04-19T07:30:55;11.60;97.50
42019;DHT22;27703;51.980;5.848;2023-04-19T07:33:22;11.60;97.10
42019;DHT22;27703;51.980;5.848;2023-04-19T07:35:49;11.70;96.70
42019;DHT22;27703;51.980;5.848;2023-04-19T07:38:14;11.70;96.30
42019;DHT22;27703;51.980;5.848;2023-04-19T07:40:40;11.80;96.80
42019;DHT22;27703;51.980;5.848;2023-04-19T07:43:05;11.90;96.40
42019;DHT22;27703;51.980;5.848;2023-04-19T07:45:32;11.90;96.40
42019;DHT22;27703;51.980;5.848;2023-04-19T07:47:58;11.80;95.60
42019;DHT22;27703;51.980;5.848;2023-04-19T07:50:26;11.80;95.90
42019;DHT22;27703;51.980;5.848;2023-04-19T07:52:52;11.90;95.90
42019;DHT22;27703;51.980;5.848;2023-04-19T07:55:18;12.00;95.90
42019;DHT22;27703;51.980;5.848;2023-04-19T07:57:43;12.00;95.20
42019;DHT22;27703;51.980;5.848;2023-04-19T08:00:13;12.00;94.40
42019;DHT22;27703;51.980;5.848;2023-04-19T08:02:44;12.10;94.60
42019;DHT22;27703;51.980;5.848;2023-04-19T08:05:11;12.10;94.40
42019;DHT22;27703;51.980;5.848;2023-04-19T08:07:38;12.20;94.20
42019;DHT22;27703;51.980;5.848;2023-04-19T08:10:05;12.20;94.20
42019;DHT22;27703;51.980;5.848;2023-04-19T08:12:31;12.30;93.90
42019;DHT22;27703;51.980;5.848;2023-04-19T08:14:57;12.30;94.00
42019;DHT22;27703;51.980;5.848;2023-04-19T08:17:22;12.50;94.10
42019;DHT22;27703;51.980;5.848;2023-04-19T08:19:49;12.60;93.70
42019;DHT22;27703;51.980;5.848;2023-04-19T08:22:15;12.60;93.10
42019;DHT22;27703;51.980;5.848;2023-04-19T08:24:42;12.60;93.10
42019;DHT22;27703;51.980;5.848;2023-04-19T08:27:09;12.70;93.20
42019;DHT22;27703;51.980;5.848;2023-04-19T08:29:34;12.70;93.30
42019;DHT22;27703;51.980;5.848;2023-04-19T08:32:00;12.80;93.20
42019;DHT22;27703;51.980;5.848;2023-04-19T08:34:26;12.90;93.50
42019;DHT22;27703;51.980;5.848;2023-04-19T08:36:52;13.00;93.50
42019;DHT22;27703;51.980;5.848;2023-04-19T08:39:17;13.10;93.50
42019;DHT22;27703;51.980;5.848;2023-04-19T08:41:43;13.20;93.00
42019;DHT22;27703;51.980;5.848;2023-04-19T08:44:10;13.40;92.70
42019;DHT22;27703;51.980;5.848;2023-04-19T08:46:36;13.50;92.60
42019;DHT22;27703;51.980;5.848;2023-04-19T08:49:04;13.50;92.30
42019;DHT22;27703;51.980;5.848;2023-04-19T08:51:31;13.50;92.20
42019;DHT22;27703;51.980;5.848;2023-04-19T08:53:57;13.50;91.70
42019;DHT22;27703;51.980;5.848;2023-04-19T08:56:24;13.50;91.80
42019;DHT22;27703;51.980;5.848;2023-04-19T08:58:49;13.60;91.20
42019;DHT22;27703;51.980;5.848;2023-04-19T09:01:15;13.60;90.30
42019;DHT22;27703;51.980;5.848;2023-04-19T09:03:44;13.60;89.10
42019;DHT22;27703;51.980;5.848;2023-04-19T09:06:12;13.50;89.00
42019;DHT22;27703;51.980;5.848;2023-04-19T09:08:39;13.50;88.50
42019;DHT22;27703;51.980;5.848;2023-04-19T09:11:04;13.50;87.70
42019;DHT22;27703;51.980;5.848;2023-04-19T09:13:30;13.50;88.20
42019;DHT22;27703;51.980;5.848;2023-04-19T09:15:56;13.60;87.50
42019;DHT22;27703;51.980;5.848;2023-04-19T09:18:24;13.80;87.60
42019;DHT22;27703;51.980;5.848;2023-04-19T09:20:50;13.90;86.50
42019;DHT22;27703;51.980;5.848;2023-04-19T09:23:22;14.00;86.80
42019;DHT22;27703;51.980;5.848;2023-04-19T09:26:00;14.00;86.10
42019;DHT22;27703;51.980;5.848;2023-04-19T09:28:30;14.00;86.70
42019;DHT22;27703;51.980;5.848;2023-04-19T09:30:56;14.00;86.60
42019;DHT22;27703;51.980;5.848;2023-04-19T09:33:36;14.00;86.70
42019;DHT22;27703;51.980;5.848;2023-04-19T09:36:06;14.10;86.30
42019;DHT22;27703;51.980;5.848;2023-04-19T09:38:48;14.20;86.10
42019;DHT22;27703;51.980;5.848;2023-04-19T09:41:14;14.20;85.80
42019;DHT22;27703;51.980;5.848;2023-04-19T09:43:41;14.30;86.70
42019;DHT22;27703;51.980;5.848;2023-04-19T09:46:07;14.40;87.30
42019;DHT22;27703;51.980;5.848;2023-04-19T09:48:32;14.40;86.50
42019;DHT22;27703;51.980;5.848;2023-04-19T09:51:00;14.50;86.20
42019;DHT22;27703;51.980;5.848;2023-04-19T09:53:27;14.50;85.40
42019;DHT22;27703;51.980;5.848;2023-04-19T09:55:53;14.40;85.10
42019;DHT22;27703;51.980;5.848;2023-04-19T09:58:20;14.40;85.50
42019;DHT22;27703;51.980;5.848;2023-04-19T10:00:46;14.40;85.50
42019;DHT22;27703;51.980;5.848;2023-04-19T10:03:16;14.60;86.60
42019;DHT22;27703;51.980;5.848;2023-04-19T10:05:43;14.80;86.20
42019;DHT22;27703;51.980;5.848;2023-04-19T10:08:10;14.80;86.70
42019;DHT22;27703;51.980;5.848;2023-04-19T10:10:36;14.90;84.30
42019;DHT22;27703;51.980;5.848;2023-04-19T10:13:04;14.90;82.80
42019;DHT22;27703;51.980;5.848;2023-04-19T10:15:31;15.00;83.60
42019;DHT22;27703;51.980;5.848;2023-04-19T10:17:57;15.10;82.70
42019;DHT22;27703;51.980;5.848;2023-04-19T10:20:29;15.10;81.50
42019;DHT22;27703;51.980;5.848;2023-04-19T10:22:57;15.00;80.90
42019;DHT22;27703;51.980;5.848;2023-04-19T10:25:28;15.00;81.10
42019;DHT22;27703;51.980;5.848;2023-04-19T10:27:54;15.00;80.60
42019;DHT22;27703;51.980;5.848;2023-04-19T10:30:21;15.10;81.60
42019;DHT22;27703;51.980;5.848;2023-04-19T10:32:55;15.20;83.00
42019;DHT22;27703;51.980;5.848;2023-04-19T10:35:35;15.40;83.70
42019;DHT22;27703;51.980;5.848;2023-04-19T10:38:12;15.60;84.10
42019;DHT22;27703;51.980;5.848;2023-04-19T10:43:21;15.90;82.80
42019;DHT22;27703;51.980;5.848;2023-04-19T10:45:47;15.80;82.10
42019;DHT22;27703;51.980;5.848;2023-04-19T10:51:01;15.90;82.00
42019;DHT22;27703;51.980;5.848;2023-04-19T10:56:11;15.90;81.50
42019;DHT22;27703;51.980;5.848;2023-04-19T11:04:01;16.10;80.20
42019;DHT22;27703;51.980;5.848;2023-04-19T11:06:27;16.10;78.90
42019;DHT22;27703;51.980;5.848;2023-04-19T11:08:53;16.10;79.40
42019;DHT22;27703;51.980;5.848;2023-04-19T11:11:19;16.00;78.30
42019;DHT22;27703;51.980;5.848;2023-04-19T11:13:48;16.00;77.80
42019;DHT22;27703;51.980;5.848;2023-04-19T11:16:14;16.10;78.40
42019;DHT22;27703;51.980;5.848;2023-04-19T11:18:39;16.20;78.60
42019;DHT22;27703;51.980;5.848;2023-04-19T11:21:05;16.40;76.70
42019;DHT22;27703;51.980;5.848;2023-04-19T11:23:30;16.60;76.80
42019;DHT22;27703;51.980;5.848;2023-04-19T11:25:56;16.70;74.70
42019;DHT22;27703;51.980;5.848;2023-04-19T11:28:22;16.70;74.30
42019;DHT22;27703;51.980;5.848;2023-04-19T11:30:48;16.70;73.00
42019;DHT22;27703;51.980;5.848;2023-04-19T11:33:14;16.80;72.20
42019;DHT22;27703;51.980;5.848;2023-04-19T11:35:39;16.90;72.50
42019;DHT22;27703;51.980;5.848;2023-04-19T11:38:07;17.00;70.70
42019;DHT22;27703;51.980;5.848;2023-04-19T11:40:33;17.10;68.70
42019;DHT22;27703;51.980;5.848;2023-04-19T11:43:00;17.10;68.70
42019;DHT22;27703;51.980;5.848;2023-04-19T11:45:30;17.00;69.50
42019;DHT22;27703;51.980;5.848;2023-04-19T11:47:56;17.00;69.60
42019;DHT22;27703;51.980;5.848;2023-04-19T11:53:15;17.30;70.20
42019;DHT22;27703;51.980;5.848;2023-04-19T11:55:55;17.50;71.00
42019;DHT22;27703;51.980;5.848;2023-04-19T11:58:47;17.70;70.20
42019;DHT22;27703;51.980;5.848;2023-04-19T12:01:17;17.70;68.30
42019;DHT22;27703;51.980;5.848;2023-04-19T12:06:23;17.60;68.00
42019;DHT22;27703;51.980;5.848;2023-04-19T12:08:50;17.70;68.20
42019;DHT22;27703;51.980;5.848;2023-04-19T12:11:17;17.80;68.30
42019;DHT22;27703;51.980;5.848;2023-04-19T12:13:43;17.90;67.20
42019;DHT22;27703;51.980;5.848;2023-04-19T12:16:10;17.90;66.90
42019;DHT22;27703;51.980;5.848;2023-04-19T12:18:49;17.90;67.00
42019;DHT22;27703;51.980;5.848;2023-04-19T12:21:26;17.90;66.00
42019;DHT22;27703;51.980;5.848;2023-04-19T12:23:55;18.10;67.20
42019;DHT22;27703;51.980;5.848;2023-04-19T12:26:22;18.20;68.20
42019;DHT22;27703;51.980;5.848;2023-04-19T12:28:47;18.20;68.10
42019;DHT22;27703;51.980;5.848;2023-04-19T12:31:13;18.20;64.80
42019;DHT22;27703;51.980;5.848;2023-04-19T12:33:39;18.00;64.50
42019;DHT22;27703;51.980;5.848;2023-04-19T12:36:05;18.00;65.10
42019;DHT22;27703;51.980;5.848;2023-04-19T12:38:30;18.00;65.00
42019;DHT22;27703;51.980;5.848;2023-04-19T12:40:56;18.10;65.80
42019;DHT22;27703;51.980;5.848;2023-04-19T12:43:21;18.30;67.40
42019;DHT22;27703;51.980;5.848;2023-04-19T12:45:47;18.50;67.70
42019;DHT22;27703;51.980;5.848;2023-04-19T12:48:12;18.60;67.10
42019;DHT22;27703;51.980;5.848;2023-04-19T12:50:38;18.60;66.80
42019;DHT22;27703;51.980;5.848;2023-04-19T12:53:03;18.60;67.90
42019;DHT22;27703;51.980;5.848;2023-04-19T12:55:31;18.60;66.90
42019;DHT22;27703;51.980;5.848;2023-04-19T12:57:56;18.70;68.20
42019;DHT22;27703;51.980;5.848;2023-04-19T13:00:22;18.80;68.30
42019;DHT22;27703;51.980;5.848;2023-04-19T13:02:48;18.80;67.20
42019;DHT22;27703;51.980;5.848;2023-04-19T13:05:14;18.80;67.20
42019;DHT22;27703;51.980;5.848;2023-04-19T13:07:40;18.90;68.20
42019;DHT22;27703;51.980;5.848;2023-04-19T13:10:06;19.00;68.70
42019;DHT22;27703;51.980;5.848;2023-04-19T13:12:31;19.10;67.00
42019;DHT22;27703;51.980;5.848;2023-04-19T13:14:57;19.00;67.80
42019;DHT22;27703;51.980;5.848;2023-04-19T13:17:22;19.10;67.30
42019;DHT22;27703;51.980;5.848;2023-04-19T13:19:48;19.00;66.30
42019;DHT22;27703;51.980;5.848;2023-04-19T13:22:14;19.00;65.50
42019;DHT22;27703;51.980;5.848;2023-04-19T13:24:40;18.90;65.90
42019;DHT22;27703;51.980;5.848;2023-04-19T13:27:05;18.90;67.10
42019;DHT22;27703;51.980;5.848;2023-04-19T13:29:31;19.00;67.10
42019;DHT22;27703;51.980;5.848;2023-04-19T13:31:57;19.00;67.10
42019;DHT22;27703;51.980;5.848;2023-04-19T13:34:22;19.20;67.40
42019;DHT22;27703;51.980;5.848;2023-04-19T13:36:48;19.20;64.70
42019;DHT22;27703;51.980;5.848;2023-04-19T13:39:13;19.10;63.00
42019;DHT22;27703;51.980;5.848;2023-04-19T13:41:40;19.00;62.50
42019;DHT22;27703;51.980;5.848;2023-04-19T13:44:05;19.00;60.70
42019;DHT22;27703;51.980;5.848;2023-04-19T13:46:31;19.00;61.40
42019;DHT22;27703;51.980;5.848;2023-04-19T13:48:57;18.90;61.00
42019;DHT22;27703;51.980;5.848;2023-04-19T13:51:22;19.00;62.90
42019;DHT22;27703;51.980;5.848;2023-04-19T13:53:48;19.00;62.40
42019;DHT22;27703;51.980;5.848;2023-04-19T13:56:13;19.10;63.10
42019;DHT22;27703;51.980;5.848;2023-04-19T13:58:39;19.20;64.00
42019;DHT22;27703;51.980;5.848;2023-04-19T14:01:05;19.40;63.70
42019;DHT22;27703;51.980;5.848;2023-04-19T14:03:30;19.50;64.20
42019;DHT22;27703;51.980;5.848;2023-04-19T14:05:57;19.50;62.90
42019;DHT22;27703;51.980;5.848;2023-04-19T14:08:22;19.50;61.50
42019;DHT22;27703;51.980;5.848;2023-04-19T14:10:51;19.30;62.00
42019;DHT22;27703;51.980;5.848;2023-04-19T14:13:16;19.20;62.80
42019;DHT22;27703;51.980;5.848;2023-04-19T14:15:42;19.30;63.00
42019;DHT22;27703;51.980;5.848;2023-04-19T14:18:07;19.30;63.40
42019;DHT22;27703;51.980;5.848;2023-04-19T14:20:33;19.40;64.00
42019;DHT22;27703;51.980;5.848;2023-04-19T14:22:59;19.50;64.70
42019;DHT22;27703;51.980;5.848;2023-04-19T14:25:25;19.50;65.20
42019;DHT22;27703;51.980;5.848;2023-04-19T14:27:50;19.50;64.60
42019;DHT22;27703;51.980;5.848;2023-04-19T14:30:16;19.40;64.50
42019;DHT22;27703;51.980;5.848;2023-04-19T14:32:42;19.40;64.80
42019;DHT22;27703;51.980;5.848;2023-04-19T14:35:07;19.40;65.10
42019;DHT22;27703;51.980;5.848;2023-04-19T14:37:35;19.50;64.40
42019;DHT22;27703;51.980;5.848;2023-04-19T14:40:01;19.50;63.90
42019;DHT22;27703;51.980;5.848;2023-04-19T14:42:27;19.50;65.70
42019;DHT22;27703;51.980;5.848;2023-04-19T14:44:52;19.50;64.50
42019;DHT22;27703;51.980;5.848;2023-04-19T14:47:18;19.40;65.00
42019;DHT22;27703;51.980;5.848;2023-04-19T14:49:44;19.50;65.50
42019;DHT22;27703;51.980;5.848;2023-04-19T14:52:09;19.60;66.10
42019;DHT22;27703;51.980;5.848;2023-04-19T14:54:35;19.70;64.50
42019;DHT22;27703;51.980;5.848;2023-04-19T14:57:01;19.60;65.70
42019;DHT22;27703;51.980;5.848;2023-04-19T14:59:27;19.60;66.40
42019;DHT22;27703;51.980;5.848;2023-04-19T15:01:52;19.50;65.90
42019;DHT22;27703;51.980;5.848;2023-04-19T15:04:18;19.50;65.80
42019;DHT22;27703;51.980;5.848;2023-04-19T15:06:44;19.50;65.70
42019;DHT22;27703;51.980;5.848;2023-04-19T15:09:09;19.40;65.00
42019;DHT22;27703;51.980;5.848;2023-04-19T15:11:35;19.30;64.00
42019;DHT22;27703;51.980;5.848;2023-04-19T15:14:01;19.20;64.20
42019;DHT22;27703;51.980;5.848;2023-04-19T15:16:27;19.00;64.40
42019;DHT22;27703;51.980;5.848;2023-04-19T15:18:52;19.00;64.90
42019;DHT22;27703;51.980;5.848;2023-04-19T15:21:19;19.00;64.10
42019;DHT22;27703;51.980;5.848;2023-04-19T15:23:45;18.90;64.90
42019;DHT22;27703;51.980;5.848;2023-04-19T15:26:10;19.00;66.30
42019;DHT22;27703;51.980;5.848;2023-04-19T15:28:36;19.20;66.30
42019;DHT22;27703;51.980;5.848;2023-04-19T15:31:04;19.30;65.00
42019;DHT22;27703;51.980;5.848;2023-04-19T15:33:30;19.40;64.30
42019;DHT22;27703;51.980;5.848;2023-04-19T15:35:56;19.40;65.30
42019;DHT22;27703;51.980;5.848;2023-04-19T15:38:27;19.30;65.20
42019;DHT22;27703;51.980;5.848;2023-04-19T15:40:54;19.20;65.20
42019;DHT22;27703;51.980;5.848;2023-04-19T15:43:21;19.00;63.80
42019;DHT22;27703;51.980;5.848;2023-04-19T15:45:46;18.80;63.70